Time;durP1;ratioP1;P1;durP2;ratioP2;P2;SDS_P1;SDS_P2;PMS_P1;PMS_P2;Temp;Humidity;BMP_temperature;BMP_pressure;BME280_temperature;BME280_humidity;BME280_pressure;Samples;Min_cycle;Max_cycle;Signal;HPM_P1;HPM_P2
2022/08/18 06:14:43;;;;;;;7.15;3.70;;;;;;;;;;6337045;22;20066;-80
2022/08/18 06:17:34;;;;;;;6.72;4.38;;;;;;;;;;6343523;22;20010;-82
2022/08/18 06:20:19;;;;;;;5.90;4.20;;;;;;;;;;6371103;22;20002;-81
2022/08/18 06:23:03;;;;;;;4.95;4.03;;;;;;;;;;6370718;22;20041;-80
2022/08/18 06:25:34;;;;;;;7.20;4.30;;;;;;;;;;6371160;22;20024;-79
2022/08/18 06:28:06;;;;;;;7.22;4.45;;;;;;;;;;6370634;22;20003;-80
2022/08/18 06:30:40;;;;;;;6.35;4.50;;;;;;;;;;6371519;22;20369;-80
2022/08/18 06:33:18;;;;;;;5.70;4.07;;;;;;;;;;6370787;22;20006;-81
2022/08/18 06:35:50;;;;;;;7.50;5.30;;;;;;;;;;6371127;22;20309;-80
2022/08/18 06:38:37;;;;;;;9.38;4.80;;;;;;;;;;6370652;22;20468;-79
2022/08/18 06:41:11;;;;;;;7.10;4.45;;;;;;;;;;6371145;22;20058;-79
2022/08/18 06:43:43;;;;;;;6.25;4.80;;;;;;;;;;6342887;22;20332;-79
2022/08/18 06:46:17;;;;;;;7.78;4.85;;;;;;;;;;6370688;22;19999;-79
2022/08/18 06:48:53;;;;;;;6.97;5.13;;;;;;;;;;6370626;22;20478;-80
2022/08/18 06:51:21;;;;;;;7.07;4.50;;;;;;;;;;6343031;22;20409;-80
2022/08/18 06:54:23;;;;;;;6.90;4.60;;;;;;;;;;6370967;22;20013;-81
2022/08/18 06:56:51;;;;;;;9.10;5.07;;;;;;;;;;6370942;22;20078;-80
2022/08/18 06:59:33;;;;;;;9.48;4.78;;;;;;;;;;6342935;22;20093;-80
2022/08/18 07:02:22;;;;;;;6.82;4.47;;;;;;;;;;6371074;22;20060;-79
2022/08/18 07:05:06;;;;;;;6.20;5.05;;;;;;;;;;6370701;22;19998;-80
2022/08/18 07:07:40;;;;;;;9.38;5.32;;;;;;;;;;6371181;22;20002;-80
2022/08/18 07:10:33;;;;;;;7.60;5.40;;;;;;;;;;6342961;22;20093;-79
2022/08/18 07:13:11;;;;;;;8.38;5.53;;;;;;;;;;6370511;22;20298;-80
2022/08/18 07:15:38;;;;;;;7.72;4.93;;;;;;;;;;6371028;22;20006;-81
2022/08/18 07:18:06;;;;;;;8.85;5.15;;;;;;;;;;6370977;22;20044;-80
2022/08/18 07:20:44;;;;;;;8.02;5.53;;;;;;;;;;6343148;22;20081;-81
2022/08/18 07:23:21;;;;;;;9.85;5.78;;;;;;;;;;6371089;22;20317;-81
2022/08/18 07:25:51;;;;;;;6.20;5.22;;;;;;;;;;6371382;22;20002;-81
2022/08/18 07:28:27;;;;;;;8.70;5.25;;;;;;;;;;6343234;22;20028;-81
2022/08/18 07:31:14;;;;;;;12.43;5.80;;;;;;;;;;6371039;22;20410;-81
2022/08/18 07:33:42;;;;;;;9.60;5.90;;;;;;;;;;6342867;22;20474;-81
2022/08/18 07:36:09;;;;;;;10.20;5.65;;;;;;;;;;6371992;22;19998;-81
2022/08/18 07:38:44;;;;;;;8.55;6.07;;;;;;;;;;6373242;22;20325;-81
2022/08/18 07:41:15;;;;;;;10.32;6.20;;;;;;;;;;6373316;22;20428;-80
2022/08/18 07:44:18;;;;;;;7.45;5.82;;;;;;;;;;6372775;22;20025;-83
2022/08/18 07:47:09;;;;;;;12.10;5.90;;;;;;;;;;6372828;22;19998;-80
2022/08/18 07:49:36;;;;;;;11.35;5.35;;;;;;;;;;6373226;22;20005;-80
2022/08/18 07:52:25;;;;;;;9.68;5.18;;;;;;;;;;6373144;22;20069;-81
2022/08/18 07:55:17;;;;;;;9.95;5.13;;;;;;;;;;6372803;22;20010;-81
2022/08/18 07:58:22;;;;;;;10.65;5.60;;;;;;;;;;6371813;22;20061;-80
2022/08/18 08:00:55;;;;;;;10.15;5.30;;;;;;;;;;6371367;22;20006;-80
2022/08/18 08:03:40;;;;;;;12.63;5.55;;;;;;;;;;6372071;22;20451;-80
2022/08/18 08:06:32;;;;;;;8.55;5.50;;;;;;;;;;6372098;22;20082;-80
2022/08/18 08:09:29;;;;;;;8.25;5.85;;;;;;;;;;6312312;22;20304;-80
2022/08/18 08:12:03;;;;;;;10.77;6.18;;;;;;;;;;6285632;22;20010;-80
2022/08/18 08:14:28;;;;;;;11.15;6.32;;;;;;;;;;6371880;22;20034;-81
2022/08/18 08:17:00;;;;;;;10.15;6.13;;;;;;;;;;6371807;22;20417;-79
2022/08/18 08:19:46;;;;;;;16.13;5.85;;;;;;;;;;6372149;22;20006;-80
2022/08/18 08:22:23;;;;;;;9.10;5.30;;;;;;;;;;6372019;22;20059;-79
2022/08/18 08:24:58;;;;;;;7.72;4.85;;;;;;;;;;6371819;22;20504;-80
2022/08/18 08:27:52;;;;;;;10.60;5.40;;;;;;;;;;6344008;22;20085;-82
2022/08/18 08:30:20;;;;;;;9.50;5.07;;;;;;;;;;6343910;22;20444;-80
2022/08/18 08:33:12;;;;;;;6.28;4.53;;;;;;;;;;6371762;22;20025;-79
2022/08/18 08:35:44;;;;;;;7.15;4.60;;;;;;;;;;6371720;22;20325;-82
2022/08/18 08:38:22;;;;;;;8.93;4.88;;;;;;;;;;6371878;22;20380;-80
2022/08/18 08:40:58;;;;;;;5.70;4.18;;;;;;;;;;6371732;22;20002;-83
2022/08/18 08:43:31;;;;;;;8.68;3.97;;;;;;;;;;6371680;22;20005;-79
2022/08/18 08:46:04;;;;;;;6.22;4.45;;;;;;;;;;6372393;22;20074;-80
2022/08/18 08:48:33;;;;;;;9.02;4.43;;;;;;;;;;6371963;22;20004;-82
2022/08/18 08:51:06;;;;;;;7.85;4.43;;;;;;;;;;6371987;22;20051;-80
2022/08/18 08:53:38;;;;;;;11.20;5.45;;;;;;;;;;6372066;22;20005;-89
2022/08/18 08:56:09;;;;;;;7.68;5.18;;;;;;;;;;6372736;22;19994;-87
2022/08/18 08:58:44;;;;;;;7.00;4.95;;;;;;;;;;6372262;22;20002;-82
2022/08/18 09:01:35;;;;;;;10.63;5.60;;;;;;;;;;6371500;22;20271;-80
2022/08/18 09:04:16;;;;;;;14.20;7.65;;;;;;;;;;6370617;22;20002;-81
2022/08/18 09:06:41;;;;;;;10.68;6.65;;;;;;;;;;6372316;22;20030;-82
2022/08/18 09:09:20;;;;;;;8.75;6.10;;;;;;;;;;6372643;22;19998;-82
2022/08/18 09:12:12;;;;;;;8.93;6.07;;;;;;;;;;6372462;22;20005;-82
2022/08/18 09:14:49;;;;;;;7.05;6.15;;;;;;;;;;6372393;22;20021;-82
2022/08/18 09:17:37;;;;;;;7.72;6.05;;;;;;;;;;6371572;22;20041;-82
2022/08/18 09:20:39;;;;;;;8.30;5.85;;;;;;;;;;6371385;22;20002;-81
2022/08/18 09:23:12;;;;;;;8.30;4.70;;;;;;;;;;6371343;22;20006;-80
2022/08/18 09:25:40;;;;;;;9.85;5.50;;;;;;;;;;6371908;22;20409;-81
2022/08/18 09:28:19;;;;;;;7.90;5.20;;;;;;;;;;6371828;22;20051;-81
2022/08/18 09:31:04;;;;;;;8.13;5.10;;;;;;;;;;6371795;22;20073;-81
2022/08/18 09:33:47;;;;;;;9.02;5.47;;;;;;;;;;6371688;22;20002;-82
2022/08/18 09:36:39;;;;;;;6.18;4.57;;;;;;;;;;6371820;22;19999;-81
2022/08/18 09:42:37;;;;;;;6.93;4.80;;;;;;;;;;6371516;22;20040;-81
2022/08/18 09:45:07;;;;;;;7.97;5.25;;;;;;;;;;6371775;22;20013;-82
2022/08/18 09:47:33;;;;;;;7.88;4.80;;;;;;;;;;6343520;22;20033;-81
2022/08/18 09:50:23;;;;;;;9.10;5.60;;;;;;;;;;6344525;22;20002;-84
2022/08/18 09:52:48;;;;;;;7.25;5.45;;;;;;;;;;6344742;22;19998;-84
2022/08/18 09:55:17;;;;;;;7.82;4.93;;;;;;;;;;6372118;22;20002;-81
2022/08/18 09:57:43;;;;;;;7.40;5.10;;;;;;;;;;6371544;22;20316;-79
2022/08/18 10:00:12;;;;;;;5.85;4.65;;;;;;;;;;6371229;22;20089;-81
2022/08/18 10:02:38;;;;;;;8.73;4.85;;;;;;;;;;6371375;22;20081;-86
2022/08/18 10:05:15;;;;;;;6.72;4.95;;;;;;;;;;6371823;22;19994;-83
2022/08/18 10:08:15;;;;;;;5.50;4.55;;;;;;;;;;6372005;22;19998;-83
2022/08/18 10:10:56;;;;;;;7.25;4.85;;;;;;;;;;6373481;22;19994;-86
2022/08/18 10:14:04;;;;;;;5.90;5.13;;;;;;;;;;6371941;22;20020;-85
2022/08/18 10:17:00;;;;;;;7.22;5.60;;;;;;;;;;6271142;22;20086;-83
2022/08/18 10:19:41;;;;;;;9.13;5.07;;;;;;;;;;6371375;22;20009;-83
2022/08/18 10:22:09;;;;;;;6.88;5.13;;;;;;;;;;6371259;22;20037;-85
2022/08/18 10:24:58;;;;;;;8.00;4.95;;;;;;;;;;6371532;22;20029;-82
2022/08/18 10:27:55;;;;;;;8.23;4.78;;;;;;;;;;6371915;22;20059;-81
2022/08/18 10:30:32;;;;;;;11.25;5.55;;;;;;;;;;6359709;22;20010;-83
2022/08/18 10:33:06;;;;;;;5.13;4.25;;;;;;;;;;6370627;22;20074;-83
2022/08/18 10:35:34;;;;;;;8.23;5.00;;;;;;;;;;6370855;22;19999;-82
2022/08/18 10:38:23;;;;;;;6.00;4.45;;;;;;;;;;6370976;22;20002;-82
2022/08/18 10:41:01;;;;;;;9.07;3.92;;;;;;;;;;6370672;22;20002;-82
2022/08/18 10:43:46;;;;;;;6.75;4.20;;;;;;;;;;6371210;22;20014;-83
2022/08/18 10:46:22;;;;;;;9.65;4.15;;;;;;;;;;6371191;22;20005;-82
2022/08/18 10:49:23;;;;;;;5.50;4.25;;;;;;;;;;6370752;22;20002;-81
2022/08/18 10:52:17;;;;;;;8.88;3.92;;;;;;;;;;6370673;22;20010;-84
2022/08/18 10:55:12;;;;;;;6.82;3.92;;;;;;;;;;6370486;22;19998;-85
2022/08/18 10:58:01;;;;;;;8.25;4.35;;;;;;;;;;6370674;22;20030;-83
2022/08/18 11:00:57;;;;;;;6.90;3.55;;;;;;;;;;6370282;22;20306;-85
2022/08/18 11:03:35;;;;;;;7.63;3.38;;;;;;;;;;6353791;22;20041;-82
2022/08/18 11:06:07;;;;;;;7.93;3.87;;;;;;;;;;6370985;22;20026;-82
2022/08/18 11:08:43;;;;;;;7.88;4.25;;;;;;;;;;6370859;22;20002;-84
2022/08/18 11:11:10;;;;;;;6.93;3.55;;;;;;;;;;6371804;22;20055;-81
2022/08/18 11:13:56;;;;;;;5.10;3.50;;;;;;;;;;6372768;22;20482;-83
2022/08/18 11:16:33;;;;;;;8.02;3.88;;;;;;;;;;6372954;22;20077;-83
2022/08/18 11:19:15;;;;;;;6.30;3.95;;;;;;;;;;6372873;22;20394;-84
2022/08/18 11:21:44;;;;;;;7.45;4.13;;;;;;;;;;6372168;22;20010;-83
2022/08/18 11:24:16;;;;;;;9.77;4.03;;;;;;;;;;6344832;22;20324;-84
2022/08/18 11:26:48;;;;;;;6.20;4.40;;;;;;;;;;6372947;22;20006;-83
2022/08/18 11:29:53;;;;;;;9.73;3.65;;;;;;;;;;6372726;22;20009;-83
2022/08/18 11:32:30;;;;;;;12.05;5.63;;;;;;;;;;6215603;23;20058;-85
2022/08/18 11:34:58;;;;;;;8.38;4.93;;;;;;;;;;6355928;22;20010;-85
2022/08/18 11:37:49;;;;;;;8.73;5.00;;;;;;;;;;6372712;22;20026;-82
2022/08/18 11:40:37;;;;;;;7.00;4.22;;;;;;;;;;6372930;22;20035;-84
2022/08/18 16:55:27;;;;;;;3.85;2.08;;;;;;;;;;6351575;22;20033;-79
2022/08/18 17:06:12;;;;;;;6.88;2.45;;;;;;;;;;6341114;22;20014;-79
2022/08/18 17:08:39;;;;;;;5.53;2.17;;;;;;;;;;6340099;22;19995;-80
2022/08/18 17:11:08;;;;;;;1.83;1.52;;;;;;;;;;6340289;22;20006;-79
2022/08/18 17:13:35;;;;;;;2.53;1.33;;;;;;;;;;6340189;22;20334;-79
2022/08/18 17:16:01;;;;;;;3.85;1.55;;;;;;;;;;6340539;22;20010;-79
2022/08/18 17:18:28;;;;;;;1.80;1.70;;;;;;;;;;6340141;22;20007;-78
2022/08/18 17:20:53;;;;;;;2.00;1.80;;;;;;;;;;6339545;22;20058;-80
2022/08/18 17:23:19;;;;;;;4.15;1.75;;;;;;;;;;6339592;22;20002;-79
2022/08/18 17:25:45;;;;;;;5.25;2.08;;;;;;;;;;6339931;22;20010;-79
2022/08/18 17:28:15;;;;;;;5.43;1.83;;;;;;;;;;6340319;22;20006;-82
2022/08/18 17:30:47;;;;;;;4.90;1.90;;;;;;;;;;6340200;22;19999;-76
2022/08/18 17:33:18;;;;;;;5.35;1.92;;;;;;;;;;6339611;22;19999;-78
2022/08/18 17:35:46;;;;;;;2.65;1.98;;;;;;;;;;6340478;22;20067;-77
2022/08/18 17:38:38;;;;;;;4.63;2.00;;;;;;;;;;6340654;22;20009;-81
2022/08/18 17:41:05;;;;;;;5.88;2.10;;;;;;;;;;6340354;22;20417;-81
2022/08/18 17:43:36;;;;;;;2.42;1.75;;;;;;;;;;6340069;22;19999;-79
2022/08/18 17:46:26;;;;;;;3.55;1.90;;;;;;;;;;6340106;22;20081;-80
2022/08/18 17:49:18;;;;;;;4.07;1.90;;;;;;;;;;6338068;22;20009;-79
2022/08/18 17:51:50;;;;;;;2.25;1.70;;;;;;;;;;6339594;22;20009;-80
2022/08/18 17:54:24;;;;;;;2.45;2.05;;;;;;;;;;6339783;22;20003;-84
2022/08/18 17:57:07;;;;;;;3.33;1.70;;;;;;;;;;6358773;22;20013;-85
2022/08/18 17:59:51;;;;;;;3.65;2.00;;;;;;;;;;6370966;22;20030;-84
2022/08/18 18:02:22;;;;;;;3.25;1.52;;;;;;;;;;6370854;22;20002;-83
2022/08/18 18:04:48;;;;;;;2.20;1.60;;;;;;;;;;6371201;22;20081;-81
2022/08/18 18:07:29;;;;;;;1.70;1.60;;;;;;;;;;6370956;22;20479;-84
